Time;durP1;ratioP1;P1;durP2;ratioP2;P2;SDS_P1;SDS_P2;PMS_P1;PMS_P2;Temp;Humidity;BMP_temperature;BMP_pressure;BME280_temperature;BME280_humidity;BME280_pressure;Samples;Min_cycle;Max_cycle;Signal;HPM_P1;HPM_P2
2023/01/25 00:00:52;;;;;;;10.43;3.25;;;27.80;96.10;;;;;;5017718;28;20112;-63
2023/01/25 00:03:19;;;;;;;8.82;3.63;;;27.90;96.70;;;;;;5011355;28;20028;-64
2023/01/25 00:05:47;;;;;;;9.95;3.78;;;27.90;96.10;;;;;;5015482;28;20112;-64
2023/01/25 00:08:14;;;;;;;7.13;3.85;;;28.00;94.90;;;;;;5015451;28;20025;-64
2023/01/25 00:10:41;;;;;;;10.73;4.05;;;28.10;96.30;;;;;;5019940;28;20223;-63
2023/01/25 00:13:09;;;;;;;5.45;3.13;;;28.60;97.70;;;;;;5016108;28;20101;-65
2023/01/25 00:15:36;;;;;;;7.03;3.78;;;28.80;96.30;;;;;;4994700;28;20046;-64
2023/01/25 00:18:04;;;;;;;6.72;3.42;;;29.00;94.10;;;;;;5024432;28;20433;-64
2023/01/25 00:20:31;;;;;;;9.95;3.60;;;29.30;96.30;;;;;;5019439;28;20021;-64
2023/01/25 00:22:58;;;;;;;5.57;3.08;;;29.90;94.40;;;;;;4997335;28;20018;-64
2023/01/25 00:25:26;;;;;;;8.32;3.33;;;29.80;91.50;;;;;;5011059;28;20394;-63
2023/01/25 00:27:53;;;;;;;8.77;3.28;;;29.90;90.10;;;;;;5016660;28;20451;-64
2023/01/25 00:30:20;;;;;;;7.60;3.00;;;30.40;91.40;;;;;;5012668;28;20034;-63
2023/01/25 00:32:57;;;;;;;12.25;3.47;;;31.10;90.60;;;;;;5012918;28;20026;-64
2023/01/25 00:35:29;;;;;;;7.30;3.30;;;31.80;85.90;;;;;;5021564;28;20037;-64
2023/01/25 00:38:00;;;;;;;7.72;2.85;;;32.00;85.20;;;;;;5020797;28;20052;-65
2023/01/25 00:40:27;;;;;;;7.28;3.55;;;32.60;80.00;;;;;;5024383;28;20025;-64
2023/01/25 00:42:55;;;;;;;8.95;3.67;;;31.90;77.20;;;;;;5010361;28;20100;-64
2023/01/25 00:45:22;;;;;;;9.45;3.78;;;31.50;77.50;;;;;;5021294;28;20030;-64
2023/01/25 00:47:53;;;;;;;6.72;3.30;;;31.20;78.50;;;;;;5012503;28;20022;-64
2023/01/25 00:50:20;;;;;;;8.13;3.83;;;31.10;81.40;;;;;;5011087;28;20021;-64
2023/01/25 00:52:48;;;;;;;5.07;3.17;;;31.20;82.00;;;;;;5015681;28;20030;-65
2023/01/25 00:55:15;;;;;;;7.88;3.17;;;31.50;77.20;;;;;;5003676;28;20037;-63
2023/01/25 00:57:42;;;;;;;11.40;3.55;;;31.80;85.70;;;;;;5019964;28;20021;-65
2023/01/25 01:00:10;;;;;;;8.52;3.30;;;31.50;77.00;;;;;;5013235;28;20026;-64
2023/01/25 01:02:38;;;;;;;13.00;3.85;;;31.80;79.30;;;;;;5010868;28;20025;-64
2023/01/25 01:05:06;;;;;;;7.50;3.67;;;31.90;74.60;;;;;;5012928;28;20383;-64
2023/01/25 01:07:33;;;;;;;8.20;4.07;;;31.70;80.20;;;;;;5015036;28;20026;-64
2023/01/25 01:10:00;;;;;;;6.97;3.90;;;31.00;78.40;;;;;;5014358;28;20029;-64
2023/01/25 01:12:28;;;;;;;6.32;3.60;;;31.00;80.20;;;;;;5016406;28;20057;-64
2023/01/25 01:14:56;;;;;;;10.07;3.70;;;30.60;79.30;;;;;;5009623;28;20121;-63
2023/01/25 01:17:23;;;;;;;7.20;3.28;;;31.00;79.00;;;;;;4998282;28;20034;-65
2023/01/25 01:19:51;;;;;;;5.93;3.50;;;31.20;77.00;;;;;;5013800;28;20398;-65
2023/01/25 01:22:18;;;;;;;11.30;3.72;;;31.80;77.80;;;;;;5016536;28;20022;-64
2023/01/25 01:24:48;;;;;;;7.65;4.18;;;31.90;77.00;;;;;;4999988;28;20026;-65
2023/01/25 01:27:15;;;;;;;7.13;3.60;;;32.40;78.10;;;;;;5012740;28;20117;-64
2023/01/25 01:29:43;;;;;;;4.53;3.22;;;32.90;73.50;;;;;;5009086;28;20029;-66
2023/01/25 01:32:10;;;;;;;12.80;4.50;;;32.10;70.90;;;;;;5020512;28;20029;-65
2023/01/25 01:34:37;;;;;;;6.10;3.65;;;31.10;73.00;;;;;;5019983;28;20091;-64
2023/01/25 01:37:04;;;;;;;7.18;3.42;;;30.70;79.10;;;;;;5013566;28;20044;-63
2023/01/25 01:39:32;;;;;;;7.18;3.60;;;30.90;76.70;;;;;;5009687;28;20025;-64
2023/01/25 01:41:59;;;;;;;5.95;3.13;;;31.30;75.30;;;;;;5022839;28;20475;-64
2023/01/25 01:44:46;;;;;;;8.48;4.00;;;31.50;75.90;;;;;;5015714;28;20045;-64
2023/01/25 01:47:26;;;;;;;4.93;3.00;;;32.20;81.00;;;;;;5020658;28;20029;-63
2023/01/25 01:50:02;;;;;;;6.22;3.42;;;32.20;71.00;;;;;;5014965;28;20033;-63
2023/01/25 01:52:35;;;;;;;7.50;3.95;;;31.80;71.00;;;;;;5014064;28;20378;-64
2023/01/25 01:55:17;;;;;;;6.10;3.57;;;31.10;71.10;;;;;;5021469;28;20041;-64
2023/01/25 01:57:49;;;;;;;8.18;3.45;;;30.60;73.70;;;;;;5013793;28;20093;-64
2023/01/25 02:00:24;;;;;;;10.25;3.85;;;30.90;75.60;;;;;;5007504;28;20062;-64
2023/01/25 02:02:51;;;;;;;6.85;3.55;;;31.20;73.00;;;;;;4990616;28;20049;-65
2023/01/25 02:05:31;;;;;;;7.47;3.53;;;31.30;72.00;;;;;;5016182;28;20053;-64
2023/01/25 02:08:00;;;;;;;8.93;3.30;;;31.90;81.00;;;;;;5014941;28;20077;-64
2023/01/25 02:10:29;;;;;;;7.05;3.45;;;32.30;72.90;;;;;;5016573;28;20033;-64
2023/01/25 02:12:58;;;;;;;6.75;3.70;;;32.10;69.00;;;;;;5023959;28;20029;-64
2023/01/25 02:15:30;;;;;;;7.32;3.10;;;32.10;67.90;;;;;;5018849;28;20145;-64
2023/01/25 02:17:58;;;;;;;6.20;3.47;;;32.10;69.90;;;;;;5019679;28;20056;-64
2023/01/25 02:20:42;;;;;;;5.47;3.78;;;32.40;71.80;;;;;;5023931;28;20041;-65
2023/01/25 02:23:27;;;;;;;;;;;32.30;69.80;;;;;;5005510;28;20541;-64
2023/01/25 02:25:57;;;;;;;7.53;4.00;;;32.20;69.80;;;;;;5011367;28;19941;-65
2023/01/25 02:28:31;;;;;;;6.50;3.35;;;32.20;67.00;;;;;;5023236;28;20025;-64
2023/01/25 02:30:58;;;;;;;6.68;2.95;;;32.50;65.10;;;;;;5016670;28;20025;-64
2023/01/25 02:33:27;;;;;;;6.07;3.20;;;32.70;64.70;;;;;;5013255;28;20025;-64
2023/01/25 02:36:20;;;;;;;4.68;2.80;;;32.90;67.40;;;;;;5019350;28;20044;-64
2023/01/25 02:38:55;;;;;;;6.60;3.83;;;33.50;68.50;;;;;;5018662;28;20108;-65
2023/01/25 02:41:24;;;;;;;8.13;4.15;;;34.10;68.70;;;;;;5025158;28;20033;-64
2023/01/25 02:43:53;;;;;;;11.93;4.10;;;34.10;60.30;;;;;;5017722;28;20034;-65
2023/01/25 02:46:33;;;;;;;7.18;3.90;;;34.00;60.60;;;;;;5018098;28;20037;-63
2023/01/25 02:49:01;;;;;;;7.05;4.03;;;33.50;62.00;;;;;;5000624;28;20024;-65
2023/01/25 02:51:33;;;;;;;8.45;3.50;;;33.30;67.60;;;;;;5024318;28;20032;-64
2023/01/25 02:54:02;;;;;;;6.00;3.65;;;33.00;64.40;;;;;;5013126;28;20076;-64
2023/01/25 02:56:30;;;;;;;9.05;5.15;;;32.90;65.70;;;;;;5022366;28;20034;-63
2023/01/25 02:58:57;;;;;;;7.57;3.97;;;32.70;64.90;;;;;;5007507;28;20068;-64
2023/01/25 03:01:25;;;;;;;6.18;3.40;;;32.60;64.50;;;;;;5017837;28;20033;-64
2023/01/25 03:03:52;;;;;;;6.25;3.30;;;32.70;66.40;;;;;;5021039;28;20022;-64
2023/01/25 03:06:19;;;;;;;8.38;3.00;;;32.70;65.20;;;;;;5010952;28;20394;-64
2023/01/25 03:08:46;;;;;;;6.95;2.85;;;32.90;69.20;;;;;;5018423;28;20032;-64
2023/01/25 03:11:14;;;;;;;5.43;2.92;;;33.30;67.60;;;;;;5015265;28;20025;-64
2023/01/25 03:13:41;;;;;;;5.00;2.92;;;33.40;66.40;;;;;;5012016;28;20022;-63
2023/01/25 03:16:11;;;;;;;6.45;2.67;;;33.70;66.00;;;;;;5014141;28;20128;-63
2023/01/25 03:18:39;;;;;;;5.70;3.38;;;33.70;61.80;;;;;;5019142;28;20049;-63
2023/01/25 03:21:11;;;;;;;4.63;2.70;;;33.50;62.30;;;;;;4999421;28;20030;-63
2023/01/25 03:23:39;;;;;;;7.38;2.80;;;33.50;61.20;;;;;;5025104;28;20076;-64
2023/01/25 03:26:16;;;;;;;6.38;3.00;;;33.60;61.90;;;;;;4996406;28;20053;-64
2023/01/25 03:28:43;;;;;;;6.82;2.30;;;33.40;60.40;;;;;;5020311;28;20064;-62
2023/01/25 03:31:13;;;;;;;9.75;3.15;;;33.40;64.70;;;;;;5009546;28;20033;-63
2023/01/25 03:33:41;;;;;;;6.00;2.92;;;33.50;63.40;;;;;;5008711;28;20022;-64
2023/01/25 03:36:09;;;;;;;4.97;3.03;;;33.40;63.50;;;;;;5024803;28;20034;-63
2023/01/25 03:38:37;;;;;;;5.65;3.13;;;33.00;63.90;;;;;;5012580;28;20022;-64
2023/01/25 03:41:04;;;;;;;7.10;2.28;;;32.90;67.40;;;;;;5010991;28;20088;-64
2023/01/25 03:43:32;;;;;;;7.03;2.40;;;32.90;65.40;;;;;;5004017;28;20026;-64
2023/01/25 03:46:00;;;;;;;6.70;3.00;;;32.80;66.00;;;;;;5009584;28;20457;-64
2023/01/25 03:48:29;;;;;;;5.70;2.65;;;32.90;67.00;;;;;;5013256;28;20087;-63
2023/01/25 03:50:58;;;;;;;5.88;2.40;;;32.60;65.50;;;;;;5012519;28;20075;-64
2023/01/25 03:53:30;;;;;;;8.40;2.53;;;32.80;66.50;;;;;;5008915;28;20386;-65
2023/01/25 03:56:09;;;;;;;5.60;2.30;;;32.80;66.50;;;;;;5013448;28;20038;-64
2023/01/25 03:58:38;;;;;;;5.95;2.42;;;33.20;64.30;;;;;;5013961;28;20030;-64
2023/01/25 04:01:07;;;;;;;5.30;2.20;;;32.90;65.30;;;;;;5014106;28;20076;-64
2023/01/25 04:03:35;;;;;;;8.20;2.38;;;33.10;66.40;;;;;;5021259;28;20036;-64
2023/01/25 04:06:03;;;;;;;9.13;2.28;;;33.10;64.50;;;;;;5014292;28;20029;-64
2023/01/25 04:08:31;;;;;;;11.90;3.65;;;33.10;64.20;;;;;;5022170;28;20040;-64
2023/01/25 04:11:08;;;;;;;6.75;2.45;;;32.30;64.90;;;;;;5003776;28;20494;-64
2023/01/25 04:13:37;;;;;;;7.95;2.10;;;32.00;66.40;;;;;;5004535;28;20034;-66
2023/01/25 04:16:06;;;;;;;5.88;2.28;;;32.00;63.40;;;;;;5019252;28;20065;-64
2023/01/25 04:18:34;;;;;;;4.40;1.73;;;32.00;63.60;;;;;;5010588;28;20022;-64
2023/01/25 04:21:01;;;;;;;8.95;2.60;;;31.90;67.10;;;;;;5020314;28;20479;-64
2023/01/25 04:23:29;;;;;;;7.38;2.38;;;31.60;69.20;;;;;;5013642;28;20076;-64
2023/01/25 04:25:58;;;;;;;5.63;1.95;;;31.10;70.10;;;;;;5013428;28;20125;-65
2023/01/25 04:28:26;;;;;;;10.13;2.42;;;30.80;69.90;;;;;;5023915;28;20021;-64
2023/01/25 04:30:55;;;;;;;5.22;2.28;;;30.70;69.50;;;;;;4993518;28;20088;-64
2023/01/25 04:33:22;;;;;;;8.73;2.50;;;30.50;69.70;;;;;;5020022;28;20049;-64
2023/01/25 04:35:49;;;;;;;7.22;2.65;;;30.40;70.30;;;;;;5017954;28;20508;-64
2023/01/25 04:38:18;;;;;;;5.95;3.03;;;30.80;73.10;;;;;;5004292;28;20060;-65
2023/01/25 04:40:46;;;;;;;7.82;2.20;;;31.20;72.00;;;;;;5020430;28;20108;-64
2023/01/25 04:43:15;;;;;;;6.53;2.40;;;31.70;72.70;;;;;;5018773;28;20088;-64
2023/01/25 04:45:42;;;;;;;6.55;2.33;;;32.10;69.80;;;;;;5024306;28;20072;-64
2023/01/25 04:48:11;;;;;;;7.22;2.30;;;32.10;65.20;;;;;;5013606;28;20053;-64
2023/01/25 04:50:40;;;;;;;10.80;4.25;;;32.20;69.00;;;;;;5012574;28;20032;-65
2023/01/25 04:53:10;;;;;;;291.23;114.10;;;32.20;70.10;;;;;;5007429;28;20057;-65
2023/01/25 04:55:38;;;;;;;21.25;7.35;;;31.70;69.60;;;;;;5012891;28;20643;-64
2023/01/25 04:58:05;;;;;;;5.32;2.30;;;31.40;70.20;;;;;;5011622;28;20084;-64
2023/01/25 05:00:33;;;;;;;3.53;1.90;;;31.30;69.60;;;;;;5018140;28;20080;-64
2023/01/25 05:03:00;;;;;;;4.85;2.05;;;31.30;68.90;;;;;;5023986;28;20112;-64
2023/01/25 05:05:27;;;;;;;6.22;2.08;;;31.30;69.90;;;;;;5015618;28;20552;-64
2023/01/25 05:07:55;;;;;;;9.48;2.13;;;31.40;69.50;;;;;;5011403;28;20026;-65
2023/01/25 05:10:22;;;;;;;8.48;2.05;;;31.60;70.40;;;;;;5013573;28;20544;-65
2023/01/25 05:12:49;;;;;;;4.80;1.90;;;31.90;70.80;;;;;;5018555;28;20499;-64
2023/01/25 05:15:17;;;;;;;6.95;1.88;;;32.20;71.60;;;;;;5022334;28;20042;-64
2023/01/25 05:17:44;;;;;;;5.85;1.98;;;32.00;69.90;;;;;;5020389;28;20092;-64
2023/01/25 05:20:12;;;;;;;5.70;1.80;;;31.90;69.70;;;;;;5009466;28;20100;-64
2023/01/25 05:22:39;;;;;;;6.82;2.05;;;31.70;70.20;;;;;;5006421;28;20014;-64
2023/01/25 05:26:59;;;;;;;4.90;2.25;;;31.70;70.70;;;;;;5011305;28;20034;-64
2023/01/25 05:27:54;;;;;;;7.53;1.83;;;31.60;71.20;;;;;;5009706;28;20053;-65
2023/01/25 05:30:21;;;;;;;5.28;2.00;;;31.50;71.80;;;;;;5015517;28;20018;-68
2023/01/25 05:32:49;;;;;;;4.55;1.98;;;31.30;71.60;;;;;;5019856;28;20031;-66
2023/01/25 05:35:17;;;;;;;8.65;1.90;;;30.80;73.50;;;;;;4990820;28;20038;-64
2023/01/25 05:37:44;;;;;;;6.05;1.95;;;30.40;76.40;;;;;;5011537;28;20371;-64
2023/01/25 05:40:12;;;;;;;7.20;2.13;;;30.30;76.70;;;;;;4999546;28;20037;-64
2023/01/25 05:42:39;;;;;;;4.38;1.80;;;30.40;76.70;;;;;;5021351;28;20014;-62
2023/01/25 05:45:08;;;;;;;3.78;1.60;;;30.80;76.10;;;;;;5004877;28;20025;-65
2023/01/25 05:47:35;;;;;;;6.75;2.17;;;31.10;76.30;;;;;;5015172;28;20030;-65
2023/01/25 05:50:03;;;;;;;4.75;1.40;;;31.60;74.70;;;;;;5012218;28;20510;-64
2023/01/25 05:52:30;;;;;;;3.90;1.80;;;31.90;73.20;;;;;;5012359;28;20029;-65
2023/01/25 05:54:57;;;;;;;4.47;1.67;;;32.00;71.70;;;;;;5022219;28;20027;-64
2023/01/25 05:57:25;;;;;;;9.30;2.25;;;31.60;72.00;;;;;;5004128;28;20030;-64
2023/01/25 05:59:52;;;;;;;5.75;1.80;;;31.10;73.60;;;;;;5008987;28;20394;-64
2023/01/25 06:02:19;;;;;;;6.07;1.60;;;30.70;77.00;;;;;;5028862;28;20037;-63
2023/01/25 06:04:47;;;;;;;5.63;2.30;;;30.40;76.10;;;;;;5011856;28;20092;-64
2023/01/25 06:07:14;;;;;;;5.15;1.95;;;30.00;77.70;;;;;;4992275;28;20041;-63
2023/01/25 06:09:41;;;;;;;5.18;1.98;;;29.70;78.00;;;;;;5013630;28;20192;-64
2023/01/25 06:12:09;;;;;;;5.22;1.85;;;29.70;79.60;;;;;;5011267;28;20114;-64
2023/01/25 06:14:36;;;;;;;8.38;1.75;;;29.90;80.10;;;;;;5019653;28;20061;-64
2023/01/25 06:17:04;;;;;;;8.80;2.25;;;30.30;80.40;;;;;;5014894;28;20028;-64
2023/01/25 06:19:31;;;;;;;5.35;1.83;;;30.50;78.50;;;;;;5016429;28;20474;-64
2023/01/25 06:21:59;;;;;;;6.22;2.08;;;30.50;79.20;;;;;;5019615;28;20114;-65
2023/01/25 06:24:26;;;;;;;3.63;1.70;;;30.20;77.70;;;;;;5017046;28;20028;-64
2023/01/25 06:26:53;;;;;;;8.57;2.20;;;30.00;79.40;;;;;;5011600;28;20040;-64
2023/01/25 06:29:21;;;;;;;5.57;1.90;;;29.90;80.30;;;;;;5019834;28;20022;-64
2023/01/25 06:31:48;;;;;;;9.60;2.05;;;29.70;79.80;;;;;;5022152;28;20037;-64
2023/01/25 06:34:15;;;;;;;5.75;1.90;;;29.70;80.00;;;;;;5016008;28;20033;-64
2023/01/25 06:36:43;;;;;;;6.53;2.08;;;29.80;80.80;;;;;;5018450;28;20038;-64
2023/01/25 06:39:10;;;;;;;7.15;2.10;;;29.70;80.60;;;;;;5018657;28;20021;-65
2023/01/25 06:41:37;;;;;;;4.13;1.88;;;29.90;80.80;;;;;;5020075;28;20030;-64
2023/01/25 06:44:05;;;;;;;8.20;2.35;;;29.90;80.00;;;;;;5022954;28;20029;-64
2023/01/25 06:46:32;;;;;;;6.00;1.90;;;29.90;79.90;;;;;;5022848;28;20049;-64
2023/01/25 06:49:00;;;;;;;6.53;1.85;;;29.90;80.00;;;;;;5010974;28;20026;-64
2023/01/25 06:51:27;;;;;;;6.75;1.90;;;29.90;79.90;;;;;;5012105;28;20044;-64
2023/01/25 06:53:54;;;;;;;5.13;1.80;;;29.70;79.50;;;;;;4998913;28;20028;-65
2023/01/25 06:56:23;;;;;;;8.40;2.20;;;29.60;80.60;;;;;;4998899;28;20033;-64
2023/01/25 06:58:51;;;;;;;8.65;2.35;;;29.50;80.40;;;;;;5017008;28;20074;-65
2023/01/25 07:01:21;;;;;;;10.48;2.17;;;29.60;81.70;;;;;;5007741;28;20033;-64
2023/01/25 07:03:49;;;;;;;4.05;1.83;;;29.60;81.60;;;;;;4995273;28;20031;-64
2023/01/25 07:06:17;;;;;;;6.57;1.70;;;29.70;80.80;;;;;;5007189;28;20084;-64
2023/01/25 07:08:45;;;;;;;7.78;2.10;;;29.60;81.70;;;;;;5018146;28;20026;-64
2023/01/25 07:11:13;;;;;;;3.78;1.30;;;29.70;81.50;;;;;;5025149;28;20113;-65
2023/01/25 07:13:44;;;;;;;5.32;1.65;;;29.50;81.90;;;;;;5010222;28;20449;-65
2023/01/25 07:16:20;;;;;;;6.88;1.90;;;29.60;80.70;;;;;;5012446;28;20688;-65
2023/01/25 07:18:48;;;;;;;8.65;2.03;;;29.60;82.10;;;;;;4994074;28;20041;-65
2023/01/25 07:21:19;;;;;;;4.85;1.55;;;29.60;80.80;;;;;;5010613;28;20014;-65
2023/01/25 07:23:47;;;;;;;4.60;1.92;;;29.60;81.30;;;;;;5022712;28;20053;-65
2023/01/25 07:26:20;;;;;;;6.68;1.80;;;29.50;79.60;;;;;;5014694;28;20382;-65
2023/01/25 07:28:49;;;;;;;4.38;1.42;;;29.30;79.90;;;;;;5026270;28;20852;-64
2023/01/25 07:31:17;;;;;;;9.20;1.88;;;29.30;81.30;;;;;;4999869;28;20026;-65
2023/01/25 07:33:52;;;;;;;8.75;1.77;;;29.20;82.00;;;;;;5011305;28;20487;-65
2023/01/25 07:36:20;;;;;;;7.32;1.55;;;29.00;82.50;;;;;;5024724;28;20037;-64
2023/01/25 07:38:51;;;;;;;3.47;1.50;;;28.80;82.40;;;;;;4995961;28;20030;-65
2023/01/25 07:41:19;;;;;;;4.75;1.60;;;28.90;81.30;;;;;;5017074;28;20029;-65
2023/01/25 07:43:46;;;;;;;9.50;2.72;;;28.70;81.40;;;;;;5019436;28;20390;-65
2023/01/25 07:46:15;;;;;;;5.72;1.60;;;28.60;81.70;;;;;;5017659;28;20080;-66
2023/01/25 07:48:49;;;;;;;6.97;1.42;;;28.40;81.90;;;;;;5017372;28;20032;-63
2023/01/25 07:51:22;;;;;;;7.05;1.60;;;28.40;82.80;;;;;;5015540;28;20030;-65
2023/01/25 07:53:55;;;;;;;7.72;1.92;;;28.40;83.50;;;;;;5007027;28;20042;-65
2023/01/25 07:56:27;;;;;;;5.40;1.67;;;28.20;84.10;;;;;;5006853;28;20061;-63
2023/01/25 07:58:56;;;;;;;4.85;1.38;;;28.00;85.70;;;;;;5007884;28;20034;-64
2023/01/25 08:01:26;;;;;;;6.07;1.90;;;27.90;87.60;;;;;;4989694;28;20491;-63
2023/01/25 08:03:57;;;;;;;7.45;1.88;;;27.80;89.30;;;;;;5008587;28;20037;-64
2023/01/25 08:06:29;;;;;;;3.22;1.65;;;27.70;90.20;;;;;;4987060;28;20037;-64
2023/01/25 08:08:58;;;;;;;4.25;1.52;;;27.70;90.70;;;;;;4989758;28;20041;-64
2023/01/25 08:11:28;;;;;;;6.78;1.50;;;27.50;91.00;;;;;;5012741;28;20448;-65
2023/01/25 08:13:55;;;;;;;3.88;1.77;;;27.40;91.70;;;;;;5016093;28;20018;-64
2023/01/25 08:16:26;;;;;;;5.40;2.17;;;27.30;92.10;;;;;;5021466;28;20038;-63
2023/01/25 08:18:55;;;;;;;5.32;1.80;;;27.20;92.40;;;;;;5012837;28;20096;-63
2023/01/25 08:21:27;;;;;;;4.95;1.70;;;27.10;92.50;;;;;;5015624;28;20714;-63
2023/01/25 08:23:56;;;;;;;5.72;1.73;;;27.00;93.40;;;;;;5013187;28;20719;-63
2023/01/25 08:26:23;;;;;;;6.45;2.20;;;26.80;94.00;;;;;;5014185;28;20374;-63
2023/01/25 08:28:52;;;;;;;4.10;1.60;;;26.70;95.00;;;;;;5026367;28;20076;-65
2023/01/25 08:31:26;;;;;;;6.43;1.90;;;26.60;96.40;;;;;;5022867;28;20588;-63
2023/01/25 08:33:54;;;;;;;5.20;1.58;;;26.50;97.30;;;;;;5007721;28;20034;-63
2023/01/25 08:36:26;;;;;;;7.03;1.70;;;26.30;98.10;;;;;;5002818;28;20049;-63
2023/01/25 08:38:55;;;;;;;8.93;1.98;;;26.30;99.00;;;;;;4997360;28;20022;-63
2023/01/25 08:41:24;;;;;;;6.05;1.83;;;26.20;99.90;;;;;;5018982;28;20029;-63
2023/01/25 08:43:53;;;;;;;3.63;1.70;;;26.00;99.90;;;;;;5021154;28;20030;-62
2023/01/25 08:46:22;;;;;;;4.18;1.80;;;25.90;99.90;;;;;;5015987;28;20025;-65
2023/01/25 08:48:54;;;;;;;5.22;2.20;;;25.80;99.90;;;;;;5012553;28;20053;-64
2023/01/25 08:51:22;;;;;;;5.65;1.92;;;25.70;99.90;;;;;;5016041;28;20033;-66
2023/01/25 08:53:50;;;;;;;5.63;1.83;;;25.60;99.90;;;;;;5014246;28;20032;-63
2023/01/25 08:56:18;;;;;;;9.57;2.20;;;25.50;99.90;;;;;;4996228;28;20129;-62
2023/01/25 08:58:48;;;;;;;6.00;1.52;;;25.30;99.90;;;;;;5024726;28;20025;-63
2023/01/25 09:01:17;;;;;;;3.75;1.60;;;25.30;99.90;;;;;;5013608;28;20031;-63
2023/01/25 09:03:47;;;;;;;6.85;2.75;;;25.20;99.90;;;;;;5005759;28;20998;-63
2023/01/25 09:06:15;;;;;;;8.48;2.20;;;25.00;99.90;;;;;;5026185;28;20091;-64
2023/01/25 09:08:43;;;;;;;6.00;2.45;;;25.00;99.90;;;;;;4983190;28;20018;-62
2023/01/25 09:11:18;;;;;;;6.63;2.15;;;24.90;99.90;;;;;;4993604;28;20487;-63
2023/01/25 09:13:47;;;;;;;9.43;1.95;;;24.80;99.90;;;;;;5025224;28;20461;-63
2023/01/25 09:16:17;;;;;;;5.47;2.08;;;24.70;99.90;;;;;;5026870;28;20033;-64
2023/01/25 09:18:46;;;;;;;6.35;2.22;;;24.60;99.90;;;;;;5027392;28;20052;-63
2023/01/25 09:21:16;;;;;;;6.15;2.10;;;24.50;99.90;;;;;;5027409;28;20041;-62
2023/01/25 09:23:44;;;;;;;4.57;1.60;;;24.50;99.90;;;;;;5025770;28;20031;-62
2023/01/25 09:26:14;;;;;;;10.82;2.38;;;24.40;99.90;;;;;;5015653;28;20516;-62
2023/01/25 09:28:42;;;;;;;10.15;2.47;;;24.30;99.90;;;;;;5010908;28;20092;-63
2023/01/25 09:31:10;;;;;;;9.95;2.20;;;24.30;99.90;;;;;;5020536;28;20376;-63
2023/01/25 09:33:41;;;;;;;5.28;1.75;;;24.20;99.90;;;;;;5017771;28;20030;-63
2023/01/25 09:36:10;;;;;;;4.45;1.80;;;24.10;99.90;;;;;;5009442;28;20490;-64
2023/01/25 09:38:38;;;;;;;5.18;2.35;;;24.10;99.90;;;;;;5026749;28;20561;-64
2023/01/25 09:41:17;;;;;;;6.75;1.80;;;24.00;99.90;;;;;;5027348;28;20735;-64
2023/01/25 09:44:00;;;;;;;11.05;2.38;;;24.00;99.90;;;;;;5013559;28;20041;-63
2023/01/25 09:46:40;;;;;;;9.00;2.05;;;23.90;99.90;;;;;;5019755;28;20033;-64
2023/01/25 09:49:22;;;;;;;11.40;3.00;;;23.80;99.90;;;;;;4992275;28;20178;-64
2023/01/25 09:52:08;;;;;;;11.07;2.42;;;23.70;99.90;;;;;;5005356;28;20029;-64
2023/01/25 09:54:42;;;;;;;6.78;2.17;;;23.60;99.90;;;;;;5016912;28;20080;-64
2023/01/25 09:57:34;;;;;;;5.45;1.58;;;23.60;99.90;;;;;;5022790;28;20455;-64
2023/01/25 10:00:09;;;;;;;4.65;1.60;;;23.60;99.90;;;;;;5007517;28;20022;-64
2023/01/25 10:02:40;;;;;;;7.13;1.92;;;23.50;99.90;;;;;;4990353;28;20033;-64
2023/01/25 10:05:25;;;;;;;6.18;2.10;;;23.40;99.90;;;;;;5012353;28;20394;-64
2023/01/25 10:07:58;;;;;;;3.90;1.90;;;23.30;99.90;;;;;;5008540;28;20109;-64
2023/01/25 10:10:50;;;;;;;8.00;2.38;;;23.20;99.90;;;;;;5016924;28;20592;-63
2023/01/25 10:13:23;;;;;;;6.72;1.85;;;23.20;99.90;;;;;;5018350;28;20049;-64
2023/01/25 10:15:56;;;;;;;5.60;1.73;;;23.10;99.90;;;;;;5017328;28;20128;-63
2023/01/25 10:18:47;;;;;;;5.38;2.03;;;23.00;99.90;;;;;;5016770;28;20278;-63
2023/01/25 10:21:22;;;;;;;5.15;1.85;;;22.90;99.90;;;;;;5022025;28;20075;-64
2023/01/25 10:24:16;;;;;;;4.78;1.70;;;22.90;99.90;;;;;;5024200;28;20063;-63
2023/01/25 10:26:55;;;;;;;6.32;1.90;;;22.80;99.90;;;;;;5018437;28;20052;-64
2023/01/25 10:29:28;;;;;;;3.78;1.73;;;22.70;99.90;;;;;;5006736;28;20108;-64
2023/01/25 10:32:33;;;;;;;5.88;2.38;;;22.70;99.90;;;;;;5009753;28;20032;-64
2023/01/25 10:35:25;;;;;;;7.97;2.40;;;22.60;99.90;;;;;;4944753;28;20053;-63
2023/01/25 10:37:54;;;;;;;3.75;1.77;;;22.60;99.90;;;;;;5001490;28;20060;-64
2023/01/25 10:40:30;;;;;;;4.40;1.75;;;22.50;99.90;;;;;;5012445;28;20045;-63
2023/01/25 10:43:07;;;;;;;10.85;2.30;;;22.50;99.90;;;;;;5010154;28;20030;-65
2023/01/25 10:45:34;;;;;;;7.35;1.95;;;22.40;99.90;;;;;;5006405;28;20026;-64
2023/01/25 10:48:07;;;;;;;8.10;2.20;;;22.40;99.90;;;;;;5005001;28;20025;-65
2023/01/25 10:50:42;;;;;;;6.90;1.88;;;22.30;99.90;;;;;;5007906;28;20084;-64
2023/01/25 10:53:33;;;;;;;3.83;1.88;;;22.20;99.90;;;;;;5011687;28;20483;-65
2023/01/25 10:56:02;;;;;;;9.48;2.38;;;22.10;99.90;;;;;;5006472;28;20055;-64
2023/01/25 10:58:38;;;;;;;7.90;2.70;;;22.10;99.90;;;;;;5005462;28;20037;-64
2023/01/25 11:01:10;;;;;;;7.63;3.00;;;22.00;99.90;;;;;;5010563;28;20495;-64
2023/01/25 11:03:45;;;;;;;6.40;2.67;;;22.00;99.90;;;;;;5013057;28;20076;-62
2023/01/25 11:06:12;;;;;;;4.78;2.63;;;21.90;99.90;;;;;;5025617;28;20069;-63
2023/01/25 11:08:41;;;;;;;7.63;3.33;;;21.80;99.90;;;;;;5022545;28;20112;-64
2023/01/25 11:11:39;;;;;;;4.00;2.38;;;21.70;99.90;;;;;;5007921;28;20038;-63
2023/01/25 11:14:17;;;;;;;6.57;2.22;;;21.70;99.90;;;;;;4991277;28;20061;-63
2023/01/25 11:16:48;;;;;;;4.30;1.90;;;21.60;99.90;;;;;;5019889;28;20034;-62
2023/01/25 11:19:37;;;;;;;7.57;1.95;;;21.50;99.90;;;;;;5006582;28;20034;-64
2023/01/25 11:22:20;;;;;;;5.90;2.10;;;21.40;99.90;;;;;;5007239;28;20065;-61
2023/01/25 11:24:48;;;;;;;7.68;2.20;;;21.40;99.90;;;;;;5010739;28;20045;-62
2023/01/25 11:27:26;;;;;;;7.80;2.30;;;21.30;99.90;;;;;;5018074;28;20848;-64
2023/01/25 11:30:11;;;;;;;5.50;2.05;;;21.30;99.90;;;;;;4996987;28;20053;-62
2023/01/25 11:32:39;;;;;;;9.00;3.35;;;21.30;99.90;;;;;;5006852;28;20844;-63
2023/01/25 11:35:27;;;;;;;9.13;2.17;;;21.40;99.90;;;;;;4998632;28;20156;-62
2023/01/25 11:38:23;;;;;;;9.40;2.20;;;21.50;99.90;;;;;;4998954;28;20030;-63
2023/01/25 11:41:17;;;;;;;6.75;2.10;;;21.50;99.90;;;;;;5017178;28;20120;-64
2023/01/25 11:43:59;;;;;;;8.65;2.35;;;21.50;99.90;;;;;;5002352;28;20113;-63
2023/01/25 11:46:54;;;;;;;8.27;2.63;;;21.50;99.90;;;;;;5018183;28;20048;-63
2023/01/25 11:49:40;;;;;;;11.30;2.60;;;21.60;99.90;;;;;;5018731;28;20034;-64
2023/01/25 11:52:51;;;;;;;10.23;3.08;;;21.60;99.90;;;;;;5011588;28;20368;-63
2023/01/25 11:55:25;;;;;;;5.57;1.90;;;21.60;99.90;;;;;;4972406;28;20053;-63
2023/01/25 11:58:00;;;;;;;8.80;2.10;;;21.70;99.90;;;;;;5016772;28;20033;-64
2023/01/25 12:00:45;;;;;;;;;;;21.70;99.90;;;;;;5014330;28;20049;-64
2023/01/25 12:03:31;;;;;;;11.15;2.30;;;21.60;99.90;;;;;;4995915;28;19909;-63
2023/01/25 12:06:15;;;;;;;7.38;2.50;;;21.50;99.90;;;;;;5005442;28;20033;-63
2023/01/25 12:09:20;;;;;;;8.05;2.45;;;21.50;99.90;;;;;;5009452;28;20021;-63
2023/01/25 12:12:10;;;;;;;13.77;2.90;;;21.40;99.90;;;;;;5028962;28;20037;-63
2023/01/25 12:14:49;;;;;;;6.00;2.38;;;21.30;99.90;;;;;;4997537;28;20048;-63
2023/01/25 12:17:31;;;;;;;8.13;2.67;;;21.30;99.90;;;;;;5018021;28;20037;-64
2023/01/25 12:20:37;;;;;;;7.00;2.08;;;21.20;99.90;;;;;;5013050;28;20030;-65
2023/01/25 12:23:19;;;;;;;9.38;2.55;;;21.10;99.90;;;;;;4942127;29;20027;-63
2023/01/25 12:25:54;;;;;;;4.45;1.88;;;21.00;99.90;;;;;;5020834;28;20159;-63
2023/01/25 12:28:22;;;;;;;7.85;2.63;;;20.90;99.90;;;;;;5002351;28;20122;-64
2023/01/25 12:30:55;;;;;;;7.65;3.13;;;20.90;99.90;;;;;;5021430;28;20080;-63
2023/01/25 12:33:35;;;;;;;8.18;2.40;;;20.90;99.90;;;;;;4995471;28;20569;-65
2023/01/25 12:36:26;;;;;;;9.15;3.05;;;20.80;99.90;;;;;;5018772;28;20429;-64
2023/01/25 12:38:59;;;;;;;15.40;5.63;;;20.80;99.90;;;;;;5016127;28;20060;-64
2023/01/25 12:42:14;;;;;;;13.02;3.70;;;20.90;99.90;;;;;;5017626;28;20033;-64
2023/01/25 12:44:46;;;;;;;7.25;2.65;;;20.90;99.90;;;;;;4956003;28;20070;-64
2023/01/25 12:47:39;;;;;;;7.57;3.40;;;20.80;99.90;;;;;;5007274;28;20057;-64
2023/01/25 12:50:32;;;;;;;5.95;3.65;;;20.80;99.90;;;;;;5014694;28;20025;-64
2023/01/25 12:53:31;;;;;;;7.95;3.35;;;20.80;99.90;;;;;;5010014;28;20033;-65
2023/01/25 12:55:59;;;;;;;8.20;3.63;;;20.80;99.90;;;;;;4992941;28;20134;-64
2023/01/25 12:58:57;;;;;;;12.38;2.90;;;20.80;99.90;;;;;;5018632;28;20042;-64
2023/01/25 13:01:27;;;;;;;8.05;3.08;;;20.80;99.90;;;;;;5014744;28;20037;-64
2023/01/25 13:04:09;;;;;;;6.18;2.67;;;20.80;99.90;;;;;;4995210;28;20022;-64
2023/01/25 13:06:51;;;;;;;13.18;3.78;;;20.80;99.90;;;;;;5005305;28;20037;-64
2023/01/25 13:09:51;;;;;;;4.35;2.97;;;20.80;99.90;;;;;;5018629;28;20026;-64
2023/01/25 13:12:18;;;;;;;6.93;2.75;;;20.70;99.90;;;;;;5016090;28;20061;-64